Time;durP1;ratioP1;P1;durP2;ratioP2;P2;SDS_P1;SDS_P2;PMS_P1;PMS_P2;Temp;Humidity;BMP_temperature;BMP_pressure;BME280_temperature;BME280_humidity;BME280_pressure;Samples;Min_cycle;Max_cycle;Signal;HPM_P1;HPM_P2
2021/10/30 00:00:11;;;;;;;30.77;9.15;;;10.30;99.90;;;;;;2086107;28;20448;-72
2021/10/30 00:01:12;;;;;;;29.02;9.25;;;10.30;99.90;;;;;;2085756;28;20100;-71
2021/10/30 00:02:13;;;;;;;24.92;9.18;;;10.30;99.90;;;;;;2087046;28;20031;-71
2021/10/30 00:03:13;;;;;;;32.00;8.57;;;10.30;99.90;;;;;;2085708;28;20041;-71
2021/10/30 00:04:15;;;;;;;32.70;9.63;;;10.40;99.90;;;;;;2086330;28;20025;-71
2021/10/30 00:05:16;;;;;;;25.48;9.80;;;10.40;99.90;;;;;;2078001;28;20018;-72
2021/10/30 00:06:17;;;;;;;24.58;10.05;;;10.50;99.90;;;;;;2087370;28;20029;-71
2021/10/30 00:07:19;;;;;;;29.50;10.13;;;10.40;99.90;;;;;;2095599;28;20021;-72
2021/10/30 00:08:20;;;;;;;36.25;11.02;;;10.50;99.90;;;;;;2073803;28;20076;-73
2021/10/30 00:09:21;;;;;;;42.10;10.52;;;10.50;99.90;;;;;;2077272;28;20075;-72
2021/10/30 00:10:22;;;;;;;28.05;10.15;;;10.60;99.90;;;;;;2078966;28;20028;-73
2021/10/30 00:11:22;;;;;;;20.30;10.32;;;10.60;99.90;;;;;;2078995;28;20457;-73
2021/10/30 00:12:23;;;;;;;21.25;10.07;;;10.60;99.90;;;;;;2071164;28;20078;-72
2021/10/30 00:13:24;;;;;;;27.40;10.23;;;10.70;99.90;;;;;;2078411;28;20017;-71
2021/10/30 00:14:26;;;;;;;33.40;10.45;;;10.70;99.90;;;;;;2090540;28;20032;-76
2021/10/30 00:15:27;;;;;;;24.13;10.00;;;10.70;99.90;;;;;;2083184;28;20025;-71
2021/10/30 00:16:27;;;;;;;27.02;11.05;;;10.70;99.90;;;;;;2085665;28;20029;-72
2021/10/30 00:17:28;;;;;;;29.85;11.30;;;10.80;99.90;;;;;;2088943;28;20049;-71
2021/10/30 00:18:29;;;;;;;25.65;10.70;;;10.80;99.90;;;;;;2081574;28;20048;-74
2021/10/30 00:19:30;;;;;;;24.38;10.80;;;10.80;99.90;;;;;;2064979;28;20526;-72
2021/10/30 00:20:31;;;;;;;23.58;10.45;;;10.80;99.90;;;;;;2078819;28;20030;-72
2021/10/30 00:21:32;;;;;;;26.83;11.35;;;10.80;99.90;;;;;;2081922;28;20018;-72
2021/10/30 00:22:33;;;;;;;25.25;10.90;;;10.80;99.90;;;;;;2082964;28;20699;-71
2021/10/30 00:23:33;;;;;;;33.42;11.57;;;10.90;99.90;;;;;;2081657;28;20095;-72
2021/10/30 00:24:35;;;;;;;36.15;11.02;;;10.90;99.90;;;;;;2082177;28;20070;-72
2021/10/30 00:25:36;;;;;;;26.63;11.07;;;10.90;99.90;;;;;;2089985;28;20528;-72
2021/10/30 00:26:37;;;;;;;28.15;11.38;;;10.90;99.90;;;;;;2089061;28;20057;-72
2021/10/30 00:27:37;;;;;;;27.65;11.23;;;10.90;99.90;;;;;;2088793;28;20676;-72
2021/10/30 00:28:38;;;;;;;32.55;11.27;;;10.90;99.90;;;;;;2073397;28;20054;-73
2021/10/30 00:29:39;;;;;;;33.13;11.35;;;10.90;99.90;;;;;;2082505;28;20026;-74
2021/10/30 00:30:40;;;;;;;28.77;11.43;;;10.90;99.90;;;;;;2092581;28;20021;-72
2021/10/30 00:31:41;;;;;;;31.48;12.13;;;11.00;99.90;;;;;;2090312;28;20074;-73
2021/10/30 00:32:41;;;;;;;28.40;11.02;;;11.00;99.90;;;;;;2084088;28;20128;-74
2021/10/30 00:33:42;;;;;;;30.45;13.52;;;11.00;99.90;;;;;;2092625;28;20531;-72
2021/10/30 00:34:43;;;;;;;30.95;11.75;;;11.00;99.90;;;;;;2096925;28;20050;-73
2021/10/30 00:35:43;;;;;;;32.10;11.85;;;11.00;99.90;;;;;;2082309;28;20022;-71
2021/10/30 00:36:44;;;;;;;34.85;11.18;;;11.10;99.90;;;;;;2081758;28;20034;-71
2021/10/30 00:37:45;;;;;;;29.52;11.85;;;11.10;99.90;;;;;;2074474;28;20026;-72
2021/10/30 00:38:45;;;;;;;32.85;11.40;;;11.10;99.90;;;;;;2087131;28;20037;-71
2021/10/30 00:39:46;;;;;;;29.13;11.25;;;11.10;99.90;;;;;;2089997;28;20029;-71
2021/10/30 00:40:47;;;;;;;29.98;10.93;;;11.20;99.90;;;;;;2083705;28;20033;-71
2021/10/30 00:41:49;;;;;;;28.40;11.20;;;11.20;99.90;;;;;;2082633;28;20033;-71
2021/10/30 00:42:50;;;;;;;27.52;11.13;;;11.20;99.90;;;;;;2086966;28;20036;-72
2021/10/30 00:43:51;;;;;;;29.67;10.98;;;11.30;99.90;;;;;;2082022;28;20032;-73
2021/10/30 00:44:51;;;;;;;27.70;10.40;;;11.30;99.90;;;;;;2073796;28;20053;-74
2021/10/30 00:45:52;;;;;;;25.90;10.50;;;11.30;99.90;;;;;;2075099;28;20017;-75
2021/10/30 00:46:54;;;;;;;24.92;9.90;;;11.30;99.90;;;;;;2090210;28;20036;-74
2021/10/30 00:47:54;;;;;;;30.48;11.30;;;11.30;99.90;;;;;;2090426;28;20018;-74
2021/10/30 00:48:55;;;;;;;28.40;10.13;;;11.30;99.90;;;;;;2082358;28;20025;-73
2021/10/30 00:49:56;;;;;;;31.17;10.10;;;11.30;99.90;;;;;;2088291;28;20020;-71
2021/10/30 00:50:59;;;;;;;27.00;10.05;;;11.30;99.90;;;;;;2081633;28;20033;-73
2021/10/30 00:52:01;;;;;;;29.92;11.07;;;11.30;99.90;;;;;;2082042;28;20120;-71
2021/10/30 00:53:02;;;;;;;22.25;9.25;;;11.20;99.90;;;;;;2082230;28;20511;-73
2021/10/30 00:54:05;;;;;;;35.28;10.13;;;11.30;99.90;;;;;;2082350;28;20033;-72
2021/10/30 00:55:09;;;;;;;21.25;9.27;;;11.30;99.90;;;;;;2088494;28;20036;-73
2021/10/30 00:56:11;;;;;;;29.08;9.45;;;11.40;99.90;;;;;;2083544;28;20084;-71
2021/10/30 00:57:12;;;;;;;29.33;9.25;;;11.40;99.90;;;;;;2085490;28;20408;-72
2021/10/30 00:58:14;;;;;;;26.52;9.18;;;11.40;99.90;;;;;;2080258;28;20030;-72
2021/10/30 00:59:17;;;;;;;25.20;9.80;;;11.40;99.90;;;;;;2089996;28;20025;-72
2021/10/30 01:00:18;;;;;;;37.40;9.32;;;11.40;99.90;;;;;;2104296;28;20055;-71
2021/10/30 01:01:19;;;;;;;24.45;8.77;;;11.40;99.90;;;;;;2091737;28;20033;-73
2021/10/30 01:02:20;;;;;;;24.20;8.85;;;11.40;99.90;;;;;;2080896;28;20026;-72
2021/10/30 01:03:21;;;;;;;30.55;9.38;;;11.40;99.90;;;;;;2076126;28;20022;-73
2021/10/30 01:04:22;;;;;;;30.58;8.70;;;11.50;99.90;;;;;;2073780;28;20709;-71
2021/10/30 01:05:23;;;;;;;21.38;8.15;;;11.40;99.90;;;;;;2065255;28;20023;-72
2021/10/30 01:06:25;;;;;;;22.88;8.60;;;11.40;99.90;;;;;;2067389;28;20033;-71
2021/10/30 01:07:27;;;;;;;29.58;8.30;;;11.50;99.90;;;;;;2079956;28;20025;-72
2021/10/30 01:08:28;;;;;;;25.00;8.10;;;11.50;99.90;;;;;;2078311;28;20028;-75
2021/10/30 01:09:30;;;;;;;21.67;8.38;;;11.50;99.90;;;;;;2081561;28;20030;-71
2021/10/30 01:10:31;;;;;;;27.08;9.02;;;11.50;99.90;;;;;;2073996;28;20125;-71
2021/10/30 01:11:32;;;;;;;21.50;7.30;;;11.50;99.90;;;;;;2076582;28;20049;-71
2021/10/30 01:12:33;;;;;;;26.25;8.68;;;11.50;99.90;;;;;;2082174;28;20053;-72
2021/10/30 01:13:34;;;;;;;23.73;8.07;;;11.50;99.90;;;;;;2079335;28;20390;-71
2021/10/30 01:14:36;;;;;;;32.90;8.27;;;11.60;99.90;;;;;;2081562;28;20096;-72
2021/10/30 01:15:37;;;;;;;22.98;7.57;;;11.60;99.90;;;;;;2081046;28;20118;-72
2021/10/30 01:16:38;;;;;;;27.25;8.10;;;11.60;99.90;;;;;;2073477;28;20080;-72
2021/10/30 01:17:38;;;;;;;23.40;7.28;;;11.60;99.90;;;;;;2081790;28;20112;-72
2021/10/30 01:18:41;;;;;;;19.20;7.25;;;11.70;99.90;;;;;;2086663;28;20033;-75
2021/10/30 01:19:42;;;;;;;22.30;7.30;;;11.70;99.90;;;;;;2083406;28;20027;-79
2021/10/30 01:20:42;;;;;;;16.58;6.82;;;11.70;99.90;;;;;;2081524;28;20613;-71
2021/10/30 01:21:43;;;;;;;23.17;7.57;;;11.70;99.90;;;;;;2081677;28;20026;-71
2021/10/30 01:22:44;;;;;;;19.25;6.90;;;11.70;99.90;;;;;;2078636;28;20108;-73
2021/10/30 01:23:44;;;;;;;18.52;6.95;;;11.70;99.90;;;;;;2086253;28;20056;-71
2021/10/30 01:24:45;;;;;;;18.40;6.57;;;11.70;99.90;;;;;;2085580;28;20065;-72
2021/10/30 01:25:46;;;;;;;23.70;6.88;;;11.80;99.90;;;;;;2078756;28;20096;-71
2021/10/30 01:26:48;;;;;;;22.67;6.65;;;11.80;99.90;;;;;;2079487;28;20046;-74
2021/10/30 01:27:50;;;;;;;21.08;6.45;;;11.80;99.90;;;;;;2080385;28;20037;-74
2021/10/30 01:28:52;;;;;;;19.80;6.35;;;11.80;99.90;;;;;;2076605;28;20109;-72
2021/10/30 01:29:53;;;;;;;23.23;6.82;;;11.80;99.90;;;;;;2081815;28;20025;-71
2021/10/30 01:30:54;;;;;;;18.38;6.80;;;11.80;99.90;;;;;;2082099;28;20493;-72
2021/10/30 01:31:55;;;;;;;17.98;5.85;;;11.80;99.90;;;;;;2091111;28;20029;-72
2021/10/30 01:32:57;;;;;;;21.45;5.72;;;11.80;99.90;;;;;;2090060;28;20063;-72
2021/10/30 01:34:02;;;;;;;16.90;5.88;;;11.80;99.90;;;;;;2077280;28;20032;-72
2021/10/30 01:35:04;;;;;;;21.77;5.97;;;11.90;99.90;;;;;;2095516;28;20029;-73
2021/10/30 01:36:09;;;;;;;13.50;5.28;;;11.90;99.90;;;;;;2089672;28;20025;-73
2021/10/30 01:37:09;;;;;;;20.17;6.70;;;11.90;99.90;;;;;;2074608;28;20037;-72
2021/10/30 01:38:11;;;;;;;14.18;5.65;;;11.90;99.90;;;;;;2081671;28;20057;-71
2021/10/30 01:39:13;;;;;;;14.00;5.30;;;11.90;99.90;;;;;;2082444;28;20116;-72
2021/10/30 01:40:14;;;;;;;20.88;6.10;;;11.90;99.90;;;;;;2087917;28;20135;-72
2021/10/30 01:41:15;;;;;;;14.88;5.07;;;11.90;99.90;;;;;;2091551;28;20021;-74
2021/10/30 01:42:15;;;;;;;19.98;5.60;;;12.00;99.90;;;;;;2098152;28;20400;-75
2021/10/30 01:43:17;;;;;;;17.85;5.60;;;12.00;99.90;;;;;;2082470;28;20018;-72
2021/10/30 01:44:18;;;;;;;13.00;5.10;;;12.00;99.90;;;;;;2076095;28;20026;-73
2021/10/30 01:45:18;;;;;;;17.23;4.95;;;12.00;99.90;;;;;;2082946;28;20021;-72
2021/10/30 01:46:20;;;;;;;16.90;5.05;;;12.00;99.90;;;;;;2089911;28;20091;-72
2021/10/30 01:47:20;;;;;;;17.50;5.45;;;12.00;99.90;;;;;;2090286;28;20488;-72
2021/10/30 01:48:29;;;;;;;15.15;4.50;;;12.00;99.90;;;;;;2081135;28;20034;-72
2021/10/30 01:49:30;;;;;;;15.32;5.40;;;12.00;99.90;;;;;;2078026;28;20014;-74
2021/10/30 01:50:30;;;;;;;14.77;4.28;;;12.00;99.90;;;;;;2077178;28;20022;-72
2021/10/30 01:51:31;;;;;;;18.10;4.78;;;12.00;99.90;;;;;;2088085;28;20029;-73
2021/10/30 01:52:32;;;;;;;16.50;4.50;;;12.10;99.90;;;;;;2082189;28;20064;-74
2021/10/30 01:53:34;;;;;;;13.88;4.43;;;12.10;99.90;;;;;;2082274;28;20026;-72
2021/10/30 01:54:34;;;;;;;15.73;4.25;;;12.10;99.90;;;;;;2085037;28;20063;-76
2021/10/30 01:55:37;;;;;;;16.60;5.22;;;12.10;99.90;;;;;;2090623;28;20025;-75
2021/10/30 01:56:38;;;;;;;15.07;3.92;;;12.10;99.90;;;;;;2082342;28;20700;-82
2021/10/30 01:57:39;;;;;;;14.32;3.90;;;12.10;99.90;;;;;;2075232;28;20030;-75
2021/10/30 01:58:40;;;;;;;12.77;4.18;;;12.10;99.90;;;;;;2076118;28;20577;-74
2021/10/30 01:59:41;;;;;;;10.20;3.85;;;12.10;99.90;;;;;;2078605;28;20559;-78
2021/10/30 02:00:43;;;;;;;16.27;4.07;;;12.20;99.90;;;;;;2084123;28;20029;-80
2021/10/30 02:01:44;;;;;;;16.05;4.43;;;12.10;99.90;;;;;;2082511;28;20128;-75
2021/10/30 02:02:45;;;;;;;13.35;4.53;;;12.10;99.90;;;;;;2074079;28;20041;-74
2021/10/30 02:03:45;;;;;;;15.20;4.03;;;12.10;99.90;;;;;;2074508;28;20112;-74
2021/10/30 02:04:46;;;;;;;16.23;4.07;;;12.10;99.90;;;;;;2079395;28;20105;-78
2021/10/30 02:05:47;;;;;;;12.70;4.40;;;12.10;99.90;;;;;;2074469;28;20089;-72
2021/10/30 02:06:47;;;;;;;16.98;4.43;;;12.10;99.90;;;;;;2072794;28;20400;-71
2021/10/30 02:07:48;;;;;;;17.35;4.55;;;12.20;99.90;;;;;;2080250;28;20056;-72
2021/10/30 02:08:49;;;;;;;13.40;3.70;;;12.20;99.90;;;;;;2074448;28;20145;-78
2021/10/30 02:09:50;;;;;;;13.23;3.70;;;12.20;99.90;;;;;;2073871;28;20158;-71
2021/10/30 02:10:51;;;;;;;11.43;3.65;;;12.20;99.90;;;;;;2074005;28;20117;-73
2021/10/30 02:11:52;;;;;;;16.80;3.60;;;12.20;99.90;;;;;;2073570;28;20018;-73
2021/10/30 02:12:53;;;;;;;13.88;3.50;;;12.20;99.90;;;;;;2080291;28;20030;-72
2021/10/30 02:13:53;;;;;;;14.20;4.05;;;12.20;99.90;;;;;;2081530;28;20485;-72
2021/10/30 02:14:54;;;;;;;13.10;4.15;;;12.20;99.90;;;;;;2072627;28;20029;-74
2021/10/30 02:15:55;;;;;;;8.95;3.40;;;12.20;99.90;;;;;;2080118;28;20079;-72
2021/10/30 02:16:55;;;;;;;8.68;3.42;;;12.20;99.90;;;;;;2080142;28;20033;-72
2021/10/30 02:17:56;;;;;;;15.45;4.65;;;12.20;99.90;;;;;;2089278;28;20102;-72
2021/10/30 02:18:57;;;;;;;14.07;5.07;;;12.20;99.90;;;;;;2073597;28;20029;-72
2021/10/30 02:19:58;;;;;;;12.43;3.80;;;12.20;99.90;;;;;;2073906;28;20029;-73
2021/10/30 02:20:58;;;;;;;16.60;3.58;;;12.20;99.90;;;;;;2089053;28;20040;-72
2021/10/30 02:21:59;;;;;;;12.52;3.30;;;12.10;99.90;;;;;;2089146;28;20082;-71
2021/10/30 02:23:00;;;;;;;18.58;4.07;;;12.10;99.90;;;;;;2081911;28;20553;-72
2021/10/30 02:24:01;;;;;;;12.75;3.33;;;12.10;99.90;;;;;;2072842;28;20018;-73
2021/10/30 02:25:03;;;;;;;12.32;3.30;;;12.10;99.90;;;;;;2077533;28;20025;-71
2021/10/30 02:26:04;;;;;;;;;;;12.00;99.90;;;;;;2080878;28;20556;-73
2021/10/30 02:27:05;;;;;;;13.57;3.13;;;12.00;99.90;;;;;;2088070;28;19908;-73
2021/10/30 02:28:05;;;;;;;9.20;3.35;;;12.00;99.90;;;;;;2085728;28;20049;-72
2021/10/30 02:29:06;;;;;;;8.70;3.45;;;12.00;99.90;;;;;;2073586;28;20071;-73
2021/10/30 02:30:07;;;;;;;11.10;4.00;;;12.00;99.90;;;;;;2073010;28;20548;-73
2021/10/30 02:31:08;;;;;;;10.68;3.28;;;12.00;99.90;;;;;;2072304;28;20026;-72
2021/10/30 02:32:09;;;;;;;18.27;3.60;;;12.00;99.90;;;;;;2079512;28;20037;-74
2021/10/30 02:33:09;;;;;;;14.35;3.65;;;12.00;99.90;;;;;;2072251;28;20021;-72
2021/10/30 02:34:10;;;;;;;14.18;4.13;;;12.00;99.90;;;;;;2072850;28;20428;-72
2021/10/30 02:35:12;;;;;;;11.48;3.90;;;12.00;99.90;;;;;;2078462;28;20397;-72
2021/10/30 02:36:12;;;;;;;17.02;3.90;;;12.00;99.90;;;;;;2081074;28;20025;-74
2021/10/30 02:37:13;;;;;;;12.85;3.60;;;12.00;99.90;;;;;;2080877;28;20739;-73
2021/10/30 02:38:14;;;;;;;19.85;4.20;;;12.00;99.90;;;;;;2076124;28;20026;-74
2021/10/30 02:39:14;;;;;;;13.85;3.72;;;12.00;99.90;;;;;;2080325;28;20021;-72
2021/10/30 02:40:15;;;;;;;12.82;3.80;;;12.00;99.90;;;;;;2075888;28;20429;-75
2021/10/30 02:41:16;;;;;;;14.60;4.40;;;12.00;99.90;;;;;;2073273;28;20026;-72
2021/10/30 02:42:17;;;;;;;11.82;3.47;;;12.10;99.90;;;;;;2073567;28;20429;-73
2021/10/30 02:43:18;;;;;;;16.08;3.85;;;12.10;99.90;;;;;;2080620;28;20028;-73
2021/10/30 02:44:18;;;;;;;11.57;3.58;;;12.00;99.90;;;;;;2080919;28;20031;-74
2021/10/30 02:45:19;;;;;;;13.20;4.15;;;12.00;99.90;;;;;;2080677;28;20104;-74
2021/10/30 02:46:20;;;;;;;9.40;3.28;;;12.10;99.90;;;;;;2080545;28;20704;-74
2021/10/30 02:47:21;;;;;;;14.85;3.85;;;12.10;99.90;;;;;;2073889;28;20824;-73
2021/10/30 02:48:22;;;;;;;12.55;3.47;;;12.10;99.90;;;;;;2073783;28;20022;-72
2021/10/30 02:49:22;;;;;;;15.45;3.60;;;12.10;99.90;;;;;;2074744;28;20029;-73
2021/10/30 02:50:24;;;;;;;16.88;3.95;;;12.10;99.90;;;;;;2072681;28;20022;-73
2021/10/30 02:51:25;;;;;;;12.70;3.42;;;12.10;99.90;;;;;;2069175;28;20026;-73
2021/10/30 02:52:27;;;;;;;12.13;3.20;;;12.10;99.90;;;;;;2074921;28;20609;-73
2021/10/30 02:53:27;;;;;;;12.38;3.67;;;12.10;99.90;;;;;;2078931;28;20407;-72
2021/10/30 02:54:28;;;;;;;11.43;3.40;;;12.10;99.90;;;;;;2080618;28;20029;-71
2021/10/30 02:55:29;;;;;;;16.25;3.63;;;12.10;99.90;;;;;;2089211;28;20556;-73
2021/10/30 02:56:29;;;;;;;15.20;3.63;;;12.10;99.90;;;;;;2082499;28;20022;-73
2021/10/30 02:57:30;;;;;;;9.43;3.67;;;12.00;99.90;;;;;;2074083;28;20026;-80
2021/10/30 02:58:31;;;;;;;13.18;3.70;;;12.00;99.90;;;;;;2082414;28;20026;-73
2021/10/30 02:59:32;;;;;;;10.98;3.22;;;12.00;99.90;;;;;;2070041;28;20518;-73
2021/10/30 03:00:32;;;;;;;10.80;3.67;;;12.00;99.90;;;;;;2072836;28;20026;-73
2021/10/30 03:01:33;;;;;;;15.35;3.40;;;12.00;99.90;;;;;;2079591;28;20058;-72
2021/10/30 03:02:34;;;;;;;13.30;4.07;;;11.90;99.90;;;;;;2081145;28;20124;-73
2021/10/30 03:03:34;;;;;;;12.38;3.80;;;12.00;99.90;;;;;;2077025;28;20053;-73
2021/10/30 03:04:35;;;;;;;11.48;3.38;;;11.90;99.90;;;;;;2079919;28;20017;-72
2021/10/30 03:05:36;;;;;;;15.68;3.60;;;12.00;99.90;;;;;;2073408;28;20037;-73
2021/10/30 03:06:36;;;;;;;16.17;3.63;;;11.90;99.90;;;;;;2072984;28;20018;-72
2021/10/30 03:07:38;;;;;;;13.85;3.55;;;11.90;99.90;;;;;;2080028;28;20515;-74
2021/10/30 03:08:39;;;;;;;14.85;4.40;;;11.90;99.90;;;;;;2076690;28;20021;-73
2021/10/30 03:09:39;;;;;;;15.63;3.65;;;11.90;99.90;;;;;;2072726;28;20057;-72
2021/10/30 03:10:41;;;;;;;11.48;3.85;;;11.90;99.90;;;;;;2080026;28;20128;-73
2021/10/30 03:11:42;;;;;;;16.85;3.67;;;11.90;99.90;;;;;;2086823;28;20025;-74
2021/10/30 03:12:45;;;;;;;14.35;3.90;;;11.90;99.90;;;;;;2080885;28;20048;-72
2021/10/30 03:13:46;;;;;;;16.35;3.92;;;12.00;99.90;;;;;;2075562;28;20033;-72
2021/10/30 03:14:46;;;;;;;10.73;3.33;;;11.90;99.90;;;;;;2080742;28;20409;-72
2021/10/30 03:15:47;;;;;;;12.07;3.75;;;11.90;99.90;;;;;;2075601;28;20026;-73
2021/10/30 03:16:48;;;;;;;15.85;4.60;;;11.90;99.90;;;;;;2073186;28;20135;-72
2021/10/30 03:17:49;;;;;;;15.02;3.25;;;12.00;99.90;;;;;;2079949;28;20091;-73
2021/10/30 03:18:49;;;;;;;10.15;3.72;;;12.00;99.90;;;;;;2081264;28;20017;-72
2021/10/30 03:19:50;;;;;;;14.32;3.38;;;11.90;99.90;;;;;;2072983;28;20034;-74
2021/10/30 03:20:51;;;;;;;15.70;4.00;;;12.00;99.90;;;;;;2074818;28;20083;-72
2021/10/30 03:21:52;;;;;;;17.58;4.10;;;12.00;99.90;;;;;;2079574;28;20084;-72
2021/10/30 03:22:53;;;;;;;12.68;3.72;;;12.00;99.90;;;;;;2080775;28;20072;-74
2021/10/30 03:23:53;;;;;;;16.38;3.88;;;12.00;99.90;;;;;;2081113;28;20460;-72
2021/10/30 03:24:54;;;;;;;12.88;3.53;;;12.00;99.90;;;;;;2075341;28;20092;-74
2021/10/30 03:25:55;;;;;;;9.68;3.25;;;12.00;99.90;;;;;;2073223;28;20033;-74
2021/10/30 03:26:55;;;;;;;15.20;3.38;;;12.10;99.90;;;;;;2079121;28;20080;-74
2021/10/30 03:27:56;;;;;;;15.23;3.47;;;12.10;99.90;;;;;;2081334;28;20026;-73
2021/10/30 03:28:57;;;;;;;12.52;3.65;;;12.10;99.90;;;;;;2081903;28;20505;-73
2021/10/30 03:29:58;;;;;;;11.70;3.67;;;12.10;99.90;;;;;;2075728;28;20108;-74
2021/10/30 03:30:58;;;;;;;10.55;3.13;;;12.10;99.90;;;;;;2064478;28;20026;-71
2021/10/30 03:31:59;;;;;;;15.80;3.28;;;12.10;99.90;;;;;;2079881;28;20045;-71
2021/10/30 03:33:00;;;;;;;15.82;3.63;;;12.10;99.90;;;;;;2080639;28;20511;-73
2021/10/30 03:34:00;;;;;;;10.63;3.30;;;12.20;99.90;;;;;;2072709;28;20061;-72
2021/10/30 03:35:01;;;;;;;11.60;3.38;;;12.20;99.90;;;;;;2075668;28;20163;-72
2021/10/30 03:36:02;;;;;;;12.07;3.15;;;12.20;99.90;;;;;;2064601;28;20660;-73
2021/10/30 03:37:03;;;;;;;11.90;3.42;;;12.20;99.90;;;;;;2077228;28;20025;-73
2021/10/30 03:38:04;;;;;;;10.82;3.33;;;12.20;99.90;;;;;;2080482;28;20132;-72
2021/10/30 03:39:05;;;;;;;9.50;3.17;;;12.20;99.90;;;;;;2072409;28;20022;-71
2021/10/30 03:40:07;;;;;;;18.50;3.83;;;12.20;99.90;;;;;;2080658;28;20072;-72
2021/10/30 03:41:08;;;;;;;12.10;3.30;;;12.20;99.90;;;;;;2076290;28;20049;-74
2021/10/30 03:42:09;;;;;;;15.48;4.10;;;12.30;99.90;;;;;;2072334;28;20432;-72
2021/10/30 03:43:10;;;;;;;12.50;3.25;;;12.30;99.90;;;;;;2077496;28;20053;-73
2021/10/30 03:44:11;;;;;;;11.98;3.05;;;12.30;99.90;;;;;;2083845;28;20021;-72
2021/10/30 03:45:12;;;;;;;13.48;3.28;;;12.30;99.90;;;;;;2076569;28;20022;-71
2021/10/30 03:46:13;;;;;;;10.40;3.72;;;12.30;99.90;;;;;;2076944;28;20025;-77
2021/10/30 03:47:13;;;;;;;8.75;3.15;;;12.40;99.90;;;;;;2080882;28;20448;-75
2021/10/30 03:48:17;;;;;;;11.80;3.20;;;12.40;99.90;;;;;;2074329;28;20105;-74
2021/10/30 03:49:18;;;;;;;11.65;3.83;;;12.40;99.90;;;;;;2077472;28;20025;-72
2021/10/30 03:50:19;;;;;;;11.20;3.33;;;12.40;99.90;;;;;;2086747;28;20448;-73
2021/10/30 03:51:20;;;;;;;11.55;3.30;;;12.50;99.90;;;;;;2085340;28;20025;-74
2021/10/30 03:52:20;;;;;;;8.57;3.20;;;12.40;99.90;;;;;;2089154;28;20050;-72
2021/10/30 03:53:21;;;;;;;12.52;3.20;;;12.50;99.90;;;;;;2079669;28;20394;-72
2021/10/30 03:54:22;;;;;;;8.23;2.90;;;12.50;99.90;;;;;;2082284;28;20708;-74
2021/10/30 03:55:23;;;;;;;10.15;2.83;;;12.40;99.90;;;;;;2082065;28;20501;-71
2021/10/30 03:56:23;;;;;;;10.05;2.88;;;12.50;99.90;;;;;;2076284;28;20088;-72
2021/10/30 03:57:24;;;;;;;9.88;3.10;;;12.50;99.90;;;;;;2083441;28;20018;-72
2021/10/30 03:58:25;;;;;;;11.20;3.05;;;12.50;99.90;;;;;;2077822;28;20064;-71
2021/10/30 03:59:25;;;;;;;12.50;3.08;;;12.50;99.90;;;;;;2076788;28;20021;-71
2021/10/30 04:00:27;;;;;;;10.52;3.25;;;12.50;99.90;;;;;;2073674;28;20026;-72
2021/10/30 04:01:28;;;;;;;10.07;2.80;;;12.50;99.90;;;;;;2081733;28;20022;-71
2021/10/30 04:02:28;;;;;;;13.60;3.10;;;12.50;99.90;;;;;;2083755;28;20017;-73
2021/10/30 04:03:29;;;;;;;12.68;3.05;;;12.50;99.90;;;;;;2085686;28;20044;-72
2021/10/30 04:04:30;;;;;;;11.85;3.38;;;12.50;99.90;;;;;;2082407;28;20489;-73
2021/10/30 04:05:31;;;;;;;9.80;2.78;;;12.60;99.90;;;;;;2080972;28;20026;-72
2021/10/30 04:06:31;;;;;;;7.47;2.47;;;12.50;99.90;;;;;;2087674;28;20108;-71
2021/10/30 04:07:32;;;;;;;9.55;2.40;;;12.50;99.90;;;;;;2084911;28;20168;-73
2021/10/30 04:08:33;;;;;;;11.70;2.60;;;12.60;99.90;;;;;;2069534;28;20022;-72
2021/10/30 04:09:34;;;;;;;12.88;3.63;;;12.50;99.90;;;;;;2070516;28;20037;-73
2021/10/30 04:10:35;;;;;;;7.40;2.63;;;12.50;99.90;;;;;;2084839;28;20021;-72
2021/10/30 04:11:36;;;;;;;11.18;2.83;;;12.60;99.90;;;;;;2088359;28;20025;-72
2021/10/30 04:12:37;;;;;;;12.45;2.90;;;12.50;99.90;;;;;;2073683;28;20029;-74
2021/10/30 04:13:38;;;;;;;5.70;2.78;;;12.60;99.90;;;;;;2072399;28;20030;-71
2021/10/30 04:14:38;;;;;;;7.20;2.75;;;12.60;99.90;;;;;;2068303;28;20022;-74
2021/10/30 04:15:40;;;;;;;9.07;2.75;;;12.60;99.90;;;;;;2077725;28;20073;-73
2021/10/30 04:16:40;;;;;;;11.27;2.88;;;12.60;99.90;;;;;;2074820;28;20066;-73
2021/10/30 04:17:41;;;;;;;12.20;3.03;;;12.60;99.90;;;;;;2076893;28;20030;-73
2021/10/30 04:18:44;;;;;;;7.78;2.83;;;12.60;99.90;;;;;;2083902;28;20013;-75
2021/10/30 04:19:44;;;;;;;8.70;2.65;;;12.60;99.90;;;;;;2083637;28;20029;-71
2021/10/30 04:20:45;;;;;;;8.48;2.80;;;12.60;99.90;;;;;;2085226;28;20097;-71
2021/10/30 04:21:46;;;;;;;7.35;2.90;;;12.60;99.90;;;;;;2082318;28;20033;-73
2021/10/30 04:22:47;;;;;;;10.98;3.05;;;12.60;99.90;;;;;;2076367;28;20022;-72
2021/10/30 04:23:47;;;;;;;10.25;3.42;;;12.60;99.90;;;;;;2081974;28;20508;-70
2021/10/30 04:24:48;;;;;;;8.00;2.78;;;12.70;99.90;;;;;;2079813;28;20025;-71
2021/10/30 04:25:49;;;;;;;10.15;2.75;;;12.70;99.90;;;;;;2073708;28;20121;-73
2021/10/30 04:26:49;;;;;;;7.60;2.67;;;12.60;99.90;;;;;;2076891;28;20041;-71
2021/10/30 04:27:50;;;;;;;9.77;2.95;;;12.70;99.90;;;;;;2075171;28;20079;-75
2021/10/30 04:28:51;;;;;;;7.47;2.58;;;12.70;99.90;;;;;;2082507;28;20021;-71
2021/10/30 04:29:52;;;;;;;6.25;2.40;;;12.70;99.90;;;;;;2089074;28;20021;-73
2021/10/30 04:30:52;;;;;;;6.10;2.53;;;12.70;99.90;;;;;;2090647;28;20045;-74
2021/10/30 04:31:56;;;;;;;9.00;3.15;;;12.70;99.90;;;;;;2077134;28;20048;-72
2021/10/30 04:32:57;;;;;;;8.10;3.33;;;12.70;99.90;;;;;;2074558;28;20432;-72
2021/10/30 04:34:01;;;;;;;9.40;3.00;;;12.70;99.90;;;;;;2073931;28;20026;-72
2021/10/30 04:35:11;;;;;;;7.00;2.90;;;12.70;99.90;;;;;;2070157;28;20096;-72
2021/10/30 04:36:16;;;;;;;8.13;2.83;;;12.80;99.90;;;;;;2082985;28;20032;-71
2021/10/30 04:37:16;;;;;;;7.45;2.63;;;12.70;99.90;;;;;;2078068;28;20041;-75
2021/10/30 04:38:17;;;;;;;9.73;3.03;;;12.80;99.90;;;;;;2073604;28;20450;-71
2021/10/30 04:39:19;;;;;;;10.63;2.70;;;12.80;99.90;;;;;;2081882;28;20119;-71
2021/10/30 04:40:20;;;;;;;14.10;2.60;;;12.80;99.90;;;;;;2077618;28;20030;-71
2021/10/30 04:41:21;;;;;;;11.20;2.80;;;12.80;99.90;;;;;;2077990;28;20034;-71
2021/10/30 04:42:22;;;;;;;5.40;2.72;;;12.80;99.90;;;;;;2081354;28;20068;-72
2021/10/30 04:43:23;;;;;;;6.57;2.63;;;12.80;99.90;;;;;;2068583;28;20018;-73
2021/10/30 04:44:23;;;;;;;7.28;2.95;;;12.80;99.90;;;;;;2079815;28;20021;-72
2021/10/30 04:45:24;;;;;;;9.60;2.92;;;12.80;99.90;;;;;;2078315;28;20026;-72
2021/10/30 04:46:25;;;;;;;11.98;2.78;;;12.80;99.90;;;;;;2078418;28;20049;-70
2021/10/30 04:47:26;;;;;;;10.18;2.90;;;12.80;99.90;;;;;;2076343;28;20121;-71
2021/10/30 04:48:27;;;;;;;9.65;3.00;;;12.80;99.90;;;;;;2070395;28;20057;-72
2021/10/30 04:49:28;;;;;;;8.00;2.70;;;12.80;99.90;;;;;;2071144;28;20021;-73
2021/10/30 04:50:29;;;;;;;11.15;2.78;;;12.80;99.90;;;;;;2073749;28;20519;-72
2021/10/30 04:51:31;;;;;;;8.27;2.65;;;12.80;99.90;;;;;;2072296;28;20549;-72
2021/10/30 04:52:32;;;;;;;10.63;3.30;;;12.80;99.90;;;;;;2073291;28;20022;-72
2021/10/30 04:53:37;;;;;;;10.85;3.08;;;12.80;99.90;;;;;;2074662;28;20014;-71
2021/10/30 04:54:38;;;;;;;10.95;2.80;;;12.80;99.90;;;;;;2080028;28;20109;-74
2021/10/30 04:55:39;;;;;;;7.40;2.80;;;12.80;99.90;;;;;;2076693;28;20532;-72
2021/10/30 04:56:40;;;;;;;7.93;2.85;;;12.80;99.90;;;;;;2077513;28;20014;-72
2021/10/30 04:57:40;;;;;;;17.02;3.97;;;12.80;99.90;;;;;;2075135;28;20476;-72
2021/10/30 04:58:43;;;;;;;10.43;3.20;;;12.80;99.90;;;;;;2078339;28;20022;-73
2021/10/30 04:59:44;;;;;;;7.55;2.92;;;12.80;99.90;;;;;;2074069;28;20067;-72
2021/10/30 05:00:44;;;;;;;12.30;4.80;;;12.80;99.90;;;;;;2077910;28;20029;-73
2021/10/30 05:01:45;;;;;;;8.70;2.90;;;12.80;99.90;;;;;;2073129;28;20596;-72
2021/10/30 05:02:46;;;;;;;6.28;2.58;;;12.80;99.90;;;;;;2071656;28;20022;-72
2021/10/30 05:03:46;;;;;;;7.80;3.10;;;12.80;99.90;;;;;;2072720;28;20026;-72
2021/10/30 05:04:47;;;;;;;14.95;3.20;;;12.80;99.90;;;;;;2073520;28;20053;-73
2021/10/30 05:05:48;;;;;;;10.70;3.10;;;12.80;99.90;;;;;;2072953;28;20022;-72
2021/10/30 05:06:48;;;;;;;9.10;3.15;;;12.80;99.90;;;;;;2073144;28;20474;-72
2021/10/30 05:07:50;;;;;;;8.65;2.95;;;12.80;99.90;;;;;;2074996;28;20416;-72
2021/10/30 05:08:50;;;;;;;7.75;3.28;;;12.80;99.90;;;;;;2078290;28;20511;-72
2021/10/30 05:09:51;;;;;;;7.82;3.08;;;12.80;99.90;;;;;;2074123;28;20030;-71
2021/10/30 05:10:52;;;;;;;6.15;2.88;;;12.80;99.90;;;;;;2076640;28;20048;-75
2021/10/30 05:11:52;;;;;;;7.85;3.05;;;12.80;99.90;;;;;;2078292;28;20468;-73
2021/10/30 05:12:53;;;;;;;7.72;3.25;;;12.80;99.90;;;;;;2082140;28;20103;-72
2021/10/30 05:13:54;;;;;;;8.80;3.45;;;12.80;99.90;;;;;;2077732;28;20018;-73